sensor_id;sensor_type;location;lat;lon;timestamp;temperature;humidity
5924;DHT22;2987;50.884;14.818;2022-09-09T00:02:10;13.40;99.90
5924;DHT22;2987;50.884;14.818;2022-09-09T00:04:41;13.50;99.90
5924;DHT22;2987;50.884;14.818;2022-09-09T00:07:34;13.60;99.90
5924;DHT22;2987;50.884;14.818;2022-09-09T00:10:27;13.60;99.90
5924;DHT22;2987;50.884;14.818;2022-09-09T00:18:03;13.70;99.90
5924;DHT22;2987;50.884;14.818;2022-09-09T00:20:39;13.60;99.90
5924;DHT22;2987;50.884;14.818;2022-09-09T00:23:14;13.60;99.90
5924;DHT22;2987;50.884;14.818;2022-09-09T00:31:25;13.50;99.90
5924;DHT22;2987;50.884;14.818;2022-09-09T00:33:53;13.40;99.90
5924;DHT22;2987;50.884;14.818;2022-09-09T00:36:21;13.30;99.90
5924;DHT22;2987;50.884;14.818;2022-09-09T00:38:52;13.30;99.90
5924;DHT22;2987;50.884;14.818;2022-09-09T00:44:32;13.10;99.90
5924;DHT22;2987;50.884;14.818;2022-09-09T01:00:47;12.70;99.90
5924;DHT22;2987;50.884;14.818;2022-09-09T01:03:20;12.70;99.90
5924;DHT22;2987;50.884;14.818;2022-09-09T01:06:20;12.60;99.90
5924;DHT22;2987;50.884;14.818;2022-09-09T01:19:49;12.50;99.90
5924;DHT22;2987;50.884;14.818;2022-09-09T01:22:44;12.40;99.90
5924;DHT22;2987;50.884;14.818;2022-09-09T01:33:03;12.40;99.90
5924;DHT22;2987;50.884;14.818;2022-09-09T01:35:57;12.40;99.90
5924;DHT22;2987;50.884;14.818;2022-09-09T01:38:31;12.50;99.90
5924;DHT22;2987;50.884;14.818;2022-09-09T01:40:58;12.60;99.90
5924;DHT22;2987;50.884;14.818;2022-09-09T01:43:33;12.60;99.90
5924;DHT22;2987;50.884;14.818;2022-09-09T01:48:28;12.60;99.90
5924;DHT22;2987;50.884;14.818;2022-09-09T01:51:05;12.60;99.90
5924;DHT22;2987;50.884;14.818;2022-09-09T01:53:31;12.50;99.90
5924;DHT22;2987;50.884;14.818;2022-09-09T01:56:25;12.50;99.90
5924;DHT22;2987;50.884;14.818;2022-09-09T02:01:57;12.40;99.90
5924;DHT22;2987;50.884;14.818;2022-09-09T02:04:49;12.40;99.90
5924;DHT22;2987;50.884;14.818;2022-09-09T02:07:40;12.30;99.90
5924;DHT22;2987;50.884;14.818;2022-09-09T02:10:23;12.30;99.90
5924;DHT22;2987;50.884;14.818;2022-09-09T02:15:30;12.10;99.90
5924;DHT22;2987;50.884;14.818;2022-09-09T02:17:58;12.10;99.90
5924;DHT22;2987;50.884;14.818;2022-09-09T02:20:29;12.10;99.90
5924;DHT22;2987;50.884;14.818;2022-09-09T02:23:01;12.00;99.90
5924;DHT22;2987;50.884;14.818;2022-09-09T02:25:29;12.00;99.90
5924;DHT22;2987;50.884;14.818;2022-09-09T02:28:06;12.00;99.90
5924;DHT22;2987;50.884;14.818;2022-09-09T02:30:34;11.90;99.90
5924;DHT22;2987;50.884;14.818;2022-09-09T02:33:05;11.90;99.90
5924;DHT22;2987;50.884;14.818;2022-09-09T02:35:44;11.80;99.90
5924;DHT22;2987;50.884;14.818;2022-09-09T02:38:13;11.80;99.90
5924;DHT22;2987;50.884;14.818;2022-09-09T02:40:47;11.80;99.90
5924;DHT22;2987;50.884;14.818;2022-09-09T02:43:15;11.80;99.90
5924;DHT22;2987;50.884;14.818;2022-09-09T02:45:53;11.80;99.90
5924;DHT22;2987;50.884;14.818;2022-09-09T02:48:26;11.70;99.90
5924;DHT22;2987;50.884;14.818;2022-09-09T02:51:10;11.70;99.90
5924;DHT22;2987;50.884;14.818;2022-09-09T02:53:44;11.70;99.90
5924;DHT22;2987;50.884;14.818;2022-09-09T02:56:17;11.70;99.90
5924;DHT22;2987;50.884;14.818;2022-09-09T02:58:48;11.70;99.90
5924;DHT22;2987;50.884;14.818;2022-09-09T03:01:18;11.80;99.90
5924;DHT22;2987;50.884;14.818;2022-09-09T03:03:44;11.80;99.90
5924;DHT22;2987;50.884;14.818;2022-09-09T03:06:15;11.80;99.90
5924;DHT22;2987;50.884;14.818;2022-09-09T03:08:46;11.80;99.90
5924;DHT22;2987;50.884;14.818;2022-09-09T03:11:12;11.80;99.90
5924;DHT22;2987;50.884;14.818;2022-09-09T03:13:42;11.80;99.90
5924;DHT22;2987;50.884;14.818;2022-09-09T03:16:10;11.80;99.90
5924;DHT22;2987;50.884;14.818;2022-09-09T03:18:42;11.80;99.90
5924;DHT22;2987;50.884;14.818;2022-09-09T03:21:08;11.70;99.90
5924;DHT22;2987;50.884;14.818;2022-09-09T03:23:37;11.70;99.90
5924;DHT22;2987;50.884;14.818;2022-09-09T03:26:03;11.70;99.90
5924;DHT22;2987;50.884;14.818;2022-09-09T03:28:38;11.70;99.90
5924;DHT22;2987;50.884;14.818;2022-09-09T03:31:06;11.80;99.90
5924;DHT22;2987;50.884;14.818;2022-09-09T03:33:38;11.80;99.90
5924;DHT22;2987;50.884;14.818;2022-09-09T03:36:06;11.80;99.90
5924;DHT22;2987;50.884;14.818;2022-09-09T03:38:34;11.90;99.90
5924;DHT22;2987;50.884;14.818;2022-09-09T03:41:01;11.90;99.90
5924;DHT22;2987;50.884;14.818;2022-09-09T03:43:29;11.90;99.90
5924;DHT22;2987;50.884;14.818;2022-09-09T03:45:56;11.90;99.90
5924;DHT22;2987;50.884;14.818;2022-09-09T03:48:25;11.90;99.90
5924;DHT22;2987;50.884;14.818;2022-09-09T03:50:54;11.80;99.90
5924;DHT22;2987;50.884;14.818;2022-09-09T03:53:23;11.80;99.90
5924;DHT22;2987;50.884;14.818;2022-09-09T03:55:53;11.80;99.90
5924;DHT22;2987;50.884;14.818;2022-09-09T03:58:23;11.80;99.90
5924;DHT22;2987;50.884;14.818;2022-09-09T04:00:58;11.80;99.90
5924;DHT22;2987;50.884;14.818;2022-09-09T04:03:27;11.90;99.90
5924;DHT22;2987;50.884;14.818;2022-09-09T04:05:55;11.80;99.90
5924;DHT22;2987;50.884;14.818;2022-09-09T04:08:24;11.80;99.90
5924;DHT22;2987;50.884;14.818;2022-09-09T04:10:51;11.80;99.90
5924;DHT22;2987;50.884;14.818;2022-09-09T04:13:18;11.80;99.90
5924;DHT22;2987;50.884;14.818;2022-09-09T04:15:57;11.80;99.90
5924;DHT22;2987;50.884;14.818;2022-09-09T04:18:25;11.70;99.90
5924;DHT22;2987;50.884;14.818;2022-09-09T04:20:55;11.80;99.90
5924;DHT22;2987;50.884;14.818;2022-09-09T04:23:27;11.70;99.90
5924;DHT22;2987;50.884;14.818;2022-09-09T04:25:58;11.80;99.90
5924;DHT22;2987;50.884;14.818;2022-09-09T04:28:27;11.90;99.90
5924;DHT22;2987;50.884;14.818;2022-09-09T04:30:54;11.80;99.90
5924;DHT22;2987;50.884;14.818;2022-09-09T04:33:20;11.90;99.90
5924;DHT22;2987;50.884;14.818;2022-09-09T04:35:50;11.90;99.90
5924;DHT22;2987;50.884;14.818;2022-09-09T04:38:18;11.90;99.90
5924;DHT22;2987;50.884;14.818;2022-09-09T04:40:48;11.90;99.90
5924;DHT22;2987;50.884;14.818;2022-09-09T04:43:15;12.00;99.90
5924;DHT22;2987;50.884;14.818;2022-09-09T04:45:46;12.00;99.90
5924;DHT22;2987;50.884;14.818;2022-09-09T04:48:13;12.00;99.90
5924;DHT22;2987;50.884;14.818;2022-09-09T04:50:39;12.00;99.90
5924;DHT22;2987;50.884;14.818;2022-09-09T04:53:08;12.10;99.90
5924;DHT22;2987;50.884;14.818;2022-09-09T04:55:37;12.10;99.90
5924;DHT22;2987;50.884;14.818;2022-09-09T04:58:05;12.10;99.90
5924;DHT22;2987;50.884;14.818;2022-09-09T05:00:33;12.10;99.90
5924;DHT22;2987;50.884;14.818;2022-09-09T05:03:03;12.10;99.90
5924;DHT22;2987;50.884;14.818;2022-09-09T05:05:32;12.20;99.90
5924;DHT22;2987;50.884;14.818;2022-09-09T05:08:04;12.20;99.90
5924;DHT22;2987;50.884;14.818;2022-09-09T05:10:32;12.20;99.90
5924;DHT22;2987;50.884;14.818;2022-09-09T05:12:59;12.30;99.90
5924;DHT22;2987;50.884;14.818;2022-09-09T05:15:29;12.20;99.90
5924;DHT22;2987;50.884;14.818;2022-09-09T05:17:58;12.30;99.90
5924;DHT22;2987;50.884;14.818;2022-09-09T05:20:25;12.30;99.90
5924;DHT22;2987;50.884;14.818;2022-09-09T05:22:54;12.40;99.90
5924;DHT22;2987;50.884;14.818;2022-09-09T05:25:22;12.40;99.90
5924;DHT22;2987;50.884;14.818;2022-09-09T05:27:53;12.40;99.90
5924;DHT22;2987;50.884;14.818;2022-09-09T05:30:21;12.50;99.90
5924;DHT22;2987;50.884;14.818;2022-09-09T05:32:50;12.60;99.90
5924;DHT22;2987;50.884;14.818;2022-09-09T05:35:17;12.60;99.90
5924;DHT22;2987;50.884;14.818;2022-09-09T05:37:46;12.60;99.90
5924;DHT22;2987;50.884;14.818;2022-09-09T05:40:12;12.70;99.90
5924;DHT22;2987;50.884;14.818;2022-09-09T05:42:40;13.00;99.90
5924;DHT22;2987;50.884;14.818;2022-09-09T05:45:08;12.90;99.90
5924;DHT22;2987;50.884;14.818;2022-09-09T05:47:35;12.90;99.90
5924;DHT22;2987;50.884;14.818;2022-09-09T05:50:05;12.90;99.90
5924;DHT22;2987;50.884;14.818;2022-09-09T05:52:32;13.00;99.90
5924;DHT22;2987;50.884;14.818;2022-09-09T05:54:59;13.10;99.90
5924;DHT22;2987;50.884;14.818;2022-09-09T05:57:25;13.20;99.90
5924;DHT22;2987;50.884;14.818;2022-09-09T05:59:51;13.40;99.90
5924;DHT22;2987;50.884;14.818;2022-09-09T06:02:17;13.50;99.90
5924;DHT22;2987;50.884;14.818;2022-09-09T06:04:44;13.60;99.90
5924;DHT22;2987;50.884;14.818;2022-09-09T06:07:11;13.80;99.90
5924;DHT22;2987;50.884;14.818;2022-09-09T06:09:37;13.90;99.90
5924;DHT22;2987;50.884;14.818;2022-09-09T06:12:04;14.00;99.90
5924;DHT22;2987;50.884;14.818;2022-09-09T06:14:34;14.10;99.90
5924;DHT22;2987;50.884;14.818;2022-09-09T06:17:01;14.20;99.90
5924;DHT22;2987;50.884;14.818;2022-09-09T06:19:29;14.30;99.90
5924;DHT22;2987;50.884;14.818;2022-09-09T06:21:58;14.30;99.90
5924;DHT22;2987;50.884;14.818;2022-09-09T06:24:26;14.40;99.90
5924;DHT22;2987;50.884;14.818;2022-09-09T06:26:53;14.40;99.90
5924;DHT22;2987;50.884;14.818;2022-09-09T06:29:23;14.60;99.90
5924;DHT22;2987;50.884;14.818;2022-09-09T06:31:51;14.70;99.90
5924;DHT22;2987;50.884;14.818;2022-09-09T06:34:21;14.90;99.90
5924;DHT22;2987;50.884;14.818;2022-09-09T06:36:51;15.00;99.90
5924;DHT22;2987;50.884;14.818;2022-09-09T06:39:18;15.20;99.90
5924;DHT22;2987;50.884;14.818;2022-09-09T06:41:48;15.30;99.90
5924;DHT22;2987;50.884;14.818;2022-09-09T06:44:39;15.50;99.90
5924;DHT22;2987;50.884;14.818;2022-09-09T06:47:05;15.60;99.90
5924;DHT22;2987;50.884;14.818;2022-09-09T06:49:31;15.70;99.90
5924;DHT22;2987;50.884;14.818;2022-09-09T06:51:57;15.80;99.90
5924;DHT22;2987;50.884;14.818;2022-09-09T06:54:24;16.00;99.90
5924;DHT22;2987;50.884;14.818;2022-09-09T06:56:51;16.20;99.90
5924;DHT22;2987;50.884;14.818;2022-09-09T06:59:22;16.30;99.90
5924;DHT22;2987;50.884;14.818;2022-09-09T07:01:49;16.40;99.90
5924;DHT22;2987;50.884;14.818;2022-09-09T07:04:18;16.40;99.90
5924;DHT22;2987;50.884;14.818;2022-09-09T07:06:45;16.40;99.90
5924;DHT22;2987;50.884;14.818;2022-09-09T07:09:16;16.30;99.90
5924;DHT22;2987;50.884;14.818;2022-09-09T07:11:48;16.30;99.90
5924;DHT22;2987;50.884;14.818;2022-09-09T07:14:16;16.30;99.90
5924;DHT22;2987;50.884;14.818;2022-09-09T07:16:46;16.30;99.90
5924;DHT22;2987;50.884;14.818;2022-09-09T07:19:16;16.40;99.90
5924;DHT22;2987;50.884;14.818;2022-09-09T07:21:44;16.40;99.90
5924;DHT22;2987;50.884;14.818;2022-09-09T07:24:14;16.50;99.90
5924;DHT22;2987;50.884;14.818;2022-09-09T07:26:45;16.60;99.90
5924;DHT22;2987;50.884;14.818;2022-09-09T07:29:15;16.60;99.90
5924;DHT22;2987;50.884;14.818;2022-09-09T07:31:42;16.60;99.90
5924;DHT22;2987;50.884;14.818;2022-09-09T07:34:13;16.70;99.90
5924;DHT22;2987;50.884;14.818;2022-09-09T07:36:40;16.80;99.90
5924;DHT22;2987;50.884;14.818;2022-09-09T07:39:13;16.90;99.90
5924;DHT22;2987;50.884;14.818;2022-09-09T07:41:45;17.00;99.90
5924;DHT22;2987;50.884;14.818;2022-09-09T07:44:20;17.00;99.90
5924;DHT22;2987;50.884;14.818;2022-09-09T07:46:50;17.00;99.90
5924;DHT22;2987;50.884;14.818;2022-09-09T07:49:21;17.00;99.90
5924;DHT22;2987;50.884;14.818;2022-09-09T07:51:48;17.10;99.90
5924;DHT22;2987;50.884;14.818;2022-09-09T07:54:18;17.20;99.90
5924;DHT22;2987;50.884;14.818;2022-09-09T07:56:50;17.30;99.90
5924;DHT22;2987;50.884;14.818;2022-09-09T07:59:16;17.60;99.90
5924;DHT22;2987;50.884;14.818;2022-09-09T08:01:49;18.10;99.90
5924;DHT22;2987;50.884;14.818;2022-09-09T08:04:24;18.60;99.90
5924;DHT22;2987;50.884;14.818;2022-09-09T08:06:55;19.10;99.90
5924;DHT22;2987;50.884;14.818;2022-09-09T08:09:25;19.70;99.90
5924;DHT22;2987;50.884;14.818;2022-09-09T08:11:59;20.50;99.90
5924;DHT22;2987;50.884;14.818;2022-09-09T08:14:28;21.00;99.90
5924;DHT22;2987;50.884;14.818;2022-09-09T08:16:56;21.50;99.90
5924;DHT22;2987;50.884;14.818;2022-09-09T08:19:26;22.00;99.90
5924;DHT22;2987;50.884;14.818;2022-09-09T08:21:55;22.40;99.90
5924;DHT22;2987;50.884;14.818;2022-09-09T08:24:22;22.70;99.90
5924;DHT22;2987;50.884;14.818;2022-09-09T08:26:50;22.80;99.90
5924;DHT22;2987;50.884;14.818;2022-09-09T08:29:20;22.90;99.90
5924;DHT22;2987;50.884;14.818;2022-09-09T08:31:49;23.10;99.90
5924;DHT22;2987;50.884;14.818;2022-09-09T08:34:16;23.30;99.90
5924;DHT22;2987;50.884;14.818;2022-09-09T08:36:49;23.30;99.90
5924;DHT22;2987;50.884;14.818;2022-09-09T08:39:18;23.20;99.90
5924;DHT22;2987;50.884;14.818;2022-09-09T08:42:17;22.90;99.90
5924;DHT22;2987;50.884;14.818;2022-09-09T08:45:02;22.80;99.90
5924;DHT22;2987;50.884;14.818;2022-09-09T08:47:55;22.50;99.90
5924;DHT22;2987;50.884;14.818;2022-09-09T08:53:11;22.70;99.90
5924;DHT22;2987;50.884;14.818;2022-09-09T08:58:21;22.60;99.90
5924;DHT22;2987;50.884;14.818;2022-09-09T09:01:18;22.50;99.90
5924;DHT22;2987;50.884;14.818;2022-09-09T09:04:15;22.40;99.90
5924;DHT22;2987;50.884;14.818;2022-09-09T09:10:03;22.50;99.90
5924;DHT22;2987;50.884;14.818;2022-09-09T09:17:27;22.30;99.90
5924;DHT22;2987;50.884;14.818;2022-09-09T09:19:57;21.90;99.90
5924;DHT22;2987;50.884;14.818;2022-09-09T09:22:32;21.50;99.90
5924;DHT22;2987;50.884;14.818;2022-09-09T09:25:21;21.00;99.90
5924;DHT22;2987;50.884;14.818;2022-09-09T09:28:01;20.70;99.90
5924;DHT22;2987;50.884;14.818;2022-09-09T09:30:39;20.50;99.90
5924;DHT22;2987;50.884;14.818;2022-09-09T09:33:20;20.30;99.90
5924;DHT22;2987;50.884;14.818;2022-09-09T09:35:50;20.20;99.90
5924;DHT22;2987;50.884;14.818;2022-09-09T09:38:22;20.30;99.90
5924;DHT22;2987;50.884;14.818;2022-09-09T09:40:57;20.40;99.90
5924;DHT22;2987;50.884;14.818;2022-09-09T09:43:29;20.50;99.90
5924;DHT22;2987;50.884;14.818;2022-09-09T09:45:58;21.00;99.90
5924;DHT22;2987;50.884;14.818;2022-09-09T09:48:27;21.40;99.90
5924;DHT22;2987;50.884;14.818;2022-09-09T09:51:10;21.70;99.90
5924;DHT22;2987;50.884;14.818;2022-09-09T09:53:42;22.10;99.90
5924;DHT22;2987;50.884;14.818;2022-09-09T09:56:13;22.40;99.90
5924;DHT22;2987;50.884;14.818;2022-09-09T09:58:50;22.80;99.90
5924;DHT22;2987;50.884;14.818;2022-09-09T10:03:54;22.80;99.90
5924;DHT22;2987;50.884;14.818;2022-09-09T10:06:39;22.80;99.90
5924;DHT22;2987;50.884;14.818;2022-09-09T10:09:28;23.20;99.90
5924;DHT22;2987;50.884;14.818;2022-09-09T10:14:42;23.60;99.90
5924;DHT22;2987;50.884;14.818;2022-09-09T10:17:32;23.70;99.90
5924;DHT22;2987;50.884;14.818;2022-09-09T10:20:20;23.70;99.90
5924;DHT22;2987;50.884;14.818;2022-09-09T10:22:51;23.70;99.90
5924;DHT22;2987;50.884;14.818;2022-09-09T10:25:52;23.90;99.90
5924;DHT22;2987;50.884;14.818;2022-09-09T10:28:46;23.90;99.90
5924;DHT22;2987;50.884;14.818;2022-09-09T10:31:24;23.80;99.90
5924;DHT22;2987;50.884;14.818;2022-09-09T10:36:48;24.00;99.90
5924;DHT22;2987;50.884;14.818;2022-09-09T10:39:37;24.10;99.90
5924;DHT22;2987;50.884;14.818;2022-09-09T10:42:09;24.30;99.90
5924;DHT22;2987;50.884;14.818;2022-09-09T10:45:00;24.50;99.90
5924;DHT22;2987;50.884;14.818;2022-09-09T10:53:28;24.60;99.90
5924;DHT22;2987;50.884;14.818;2022-09-09T10:58:46;24.50;99.90
5924;DHT22;2987;50.884;14.818;2022-09-09T11:03:55;24.70;99.90
5924;DHT22;2987;50.884;14.818;2022-09-09T11:06:25;24.60;99.90
5924;DHT22;2987;50.884;14.818;2022-09-09T11:08:54;24.60;99.90
5924;DHT22;2987;50.884;14.818;2022-09-09T11:11:31;24.80;99.90
5924;DHT22;2987;50.884;14.818;2022-09-09T11:14:09;24.90;99.90
5924;DHT22;2987;50.884;14.818;2022-09-09T11:16:45;24.80;99.90
5924;DHT22;2987;50.884;14.818;2022-09-09T11:19:28;24.70;99.90
5924;DHT22;2987;50.884;14.818;2022-09-09T11:21:57;24.90;99.90
5924;DHT22;2987;50.884;14.818;2022-09-09T11:24:35;25.00;99.90
5924;DHT22;2987;50.884;14.818;2022-09-09T11:27:13;25.20;99.90
5924;DHT22;2987;50.884;14.818;2022-09-09T11:30:16;25.20;99.90
5924;DHT22;2987;50.884;14.818;2022-09-09T11:33:10;25.30;99.90
5924;DHT22;2987;50.884;14.818;2022-09-09T11:36:13;25.60;99.90
5924;DHT22;2987;50.884;14.818;2022-09-09T11:38:46;25.60;99.90
5924;DHT22;2987;50.884;14.818;2022-09-09T11:41:14;25.40;99.90
5924;DHT22;2987;50.884;14.818;2022-09-09T11:43:47;25.20;99.90
5924;DHT22;2987;50.884;14.818;2022-09-09T11:46:16;25.00;99.90
5924;DHT22;2987;50.884;14.818;2022-09-09T11:48:45;24.80;99.90
5924;DHT22;2987;50.884;14.818;2022-09-09T11:51:28;25.10;99.90
5924;DHT22;2987;50.884;14.818;2022-09-09T11:53:59;25.40;99.90
5924;DHT22;2987;50.884;14.818;2022-09-09T11:56:31;25.70;99.90
5924;DHT22;2987;50.884;14.818;2022-09-09T11:59:03;25.90;99.90
5924;DHT22;2987;50.884;14.818;2022-09-09T12:01:41;25.90;99.90
5924;DHT22;2987;50.884;14.818;2022-09-09T12:04:28;25.70;99.90
5924;DHT22;2987;50.884;14.818;2022-09-09T12:10:38;25.50;99.90
5924;DHT22;2987;50.884;14.818;2022-09-09T12:13:23;25.70;99.90
5924;DHT22;2987;50.884;14.818;2022-09-09T12:18:35;25.90;99.90
5924;DHT22;2987;50.884;14.818;2022-09-09T12:21:42;25.80;99.90
5924;DHT22;2987;50.884;14.818;2022-09-09T12:24:11;25.60;99.90
5924;DHT22;2987;50.884;14.818;2022-09-09T12:26:46;25.30;99.90
5924;DHT22;2987;50.884;14.818;2022-09-09T12:29:41;25.40;99.90
5924;DHT22;2987;50.884;14.818;2022-09-09T12:32:13;25.50;99.90
5924;DHT22;2987;50.884;14.818;2022-09-09T12:34:49;25.70;99.90
5924;DHT22;2987;50.884;14.818;2022-09-09T12:37:29;26.10;99.90
5924;DHT22;2987;50.884;14.818;2022-09-09T12:40:00;26.00;99.90
5924;DHT22;2987;50.884;14.818;2022-09-09T12:42:30;25.90;99.90
5924;DHT22;2987;50.884;14.818;2022-09-09T12:45:01;25.90;99.90
5924;DHT22;2987;50.884;14.818;2022-09-09T12:47:40;25.80;99.90
5924;DHT22;2987;50.884;14.818;2022-09-09T12:50:25;25.60;99.90
5924;DHT22;2987;50.884;14.818;2022-09-09T12:52:58;25.50;99.90
5924;DHT22;2987;50.884;14.818;2022-09-09T12:55:30;25.60;99.90
5924;DHT22;2987;50.884;14.818;2022-09-09T12:57:58;25.50;99.90
5924;DHT22;2987;50.884;14.818;2022-09-09T13:00:26;25.60;99.90
5924;DHT22;2987;50.884;14.818;2022-09-09T13:02:54;25.60;99.90
5924;DHT22;2987;50.884;14.818;2022-09-09T13:05:25;25.50;99.90
5924;DHT22;2987;50.884;14.818;2022-09-09T13:08:02;25.40;99.90
5924;DHT22;2987;50.884;14.818;2022-09-09T13:10:31;25.20;99.90
5924;DHT22;2987;50.884;14.818;2022-09-09T13:12:59;25.30;99.90
5924;DHT22;2987;50.884;14.818;2022-09-09T13:15:28;25.30;99.90
5924;DHT22;2987;50.884;14.818;2022-09-09T13:17:58;25.40;99.90
5924;DHT22;2987;50.884;14.818;2022-09-09T13:20:27;25.50;99.90
5924;DHT22;2987;50.884;14.818;2022-09-09T13:22:54;25.40;99.90
5924;DHT22;2987;50.884;14.818;2022-09-09T13:25:26;25.20;99.90
5924;DHT22;2987;50.884;14.818;2022-09-09T13:27:58;25.00;99.90
5924;DHT22;2987;50.884;14.818;2022-09-09T13:30:28;24.80;99.90
5924;DHT22;2987;50.884;14.818;2022-09-09T13:33:18;24.60;99.90
5924;DHT22;2987;50.884;14.818;2022-09-09T13:35:49;24.40;99.90
5924;DHT22;2987;50.884;14.818;2022-09-09T13:38:17;24.30;99.90
5924;DHT22;2987;50.884;14.818;2022-09-09T13:41:01;24.10;99.90
5924;DHT22;2987;50.884;14.818;2022-09-09T13:43:47;24.10;99.90
5924;DHT22;2987;50.884;14.818;2022-09-09T13:46:36;24.10;99.90
5924;DHT22;2987;50.884;14.818;2022-09-09T13:51:41;24.40;99.90
5924;DHT22;2987;50.884;14.818;2022-09-09T13:54:10;24.40;99.90
5924;DHT22;2987;50.884;14.818;2022-09-09T13:56:41;24.40;99.90
5924;DHT22;2987;50.884;14.818;2022-09-09T13:59:12;24.50;99.90
5924;DHT22;2987;50.884;14.818;2022-09-09T14:01:38;24.60;99.90
5924;DHT22;2987;50.884;14.818;2022-09-09T14:04:04;24.60;99.90
5924;DHT22;2987;50.884;14.818;2022-09-09T14:06:33;24.60;99.90
5924;DHT22;2987;50.884;14.818;2022-09-09T14:09:02;24.50;99.90
5924;DHT22;2987;50.884;14.818;2022-09-09T14:11:29;24.40;99.90
5924;DHT22;2987;50.884;14.818;2022-09-09T14:13:55;24.50;99.90
5924;DHT22;2987;50.884;14.818;2022-09-09T14:16:21;24.60;99.90
5924;DHT22;2987;50.884;14.818;2022-09-09T14:18:48;24.70;99.90
5924;DHT22;2987;50.884;14.818;2022-09-09T14:21:14;24.70;99.90
5924;DHT22;2987;50.884;14.818;2022-09-09T14:23:41;24.50;99.90
5924;DHT22;2987;50.884;14.818;2022-09-09T14:26:08;24.50;99.90
5924;DHT22;2987;50.884;14.818;2022-09-09T14:28:36;24.40;99.90
5924;DHT22;2987;50.884;14.818;2022-09-09T14:31:03;24.30;99.90
5924;DHT22;2987;50.884;14.818;2022-09-09T14:33:30;24.50;99.90
5924;DHT22;2987;50.884;14.818;2022-09-09T14:35:58;24.70;99.90
5924;DHT22;2987;50.884;14.818;2022-09-09T14:38:25;24.80;99.90
5924;DHT22;2987;50.884;14.818;2022-09-09T14:40:51;24.80;99.90
5924;DHT22;2987;50.884;14.818;2022-09-09T14:43:17;24.60;99.90
5924;DHT22;2987;50.884;14.818;2022-09-09T14:45:43;24.20;99.90
5924;DHT22;2987;50.884;14.818;2022-09-09T14:48:10;24.00;99.90
5924;DHT22;2987;50.884;14.818;2022-09-09T14:50:36;23.70;99.90
5924;DHT22;2987;50.884;14.818;2022-09-09T14:53:06;23.50;99.90
5924;DHT22;2987;50.884;14.818;2022-09-09T14:55:33;23.40;99.90
5924;DHT22;2987;50.884;14.818;2022-09-09T14:57:59;23.40;99.90
5924;DHT22;2987;50.884;14.818;2022-09-09T15:00:25;23.30;99.90
5924;DHT22;2987;50.884;14.818;2022-09-09T15:02:55;23.20;99.90
5924;DHT22;2987;50.884;14.818;2022-09-09T15:05:22;23.10;99.90
5924;DHT22;2987;50.884;14.818;2022-09-09T15:07:50;23.00;99.90
5924;DHT22;2987;50.884;14.818;2022-09-09T15:10:16;22.90;99.90
5924;DHT22;2987;50.884;14.818;2022-09-09T15:12:43;23.00;99.90
5924;DHT22;2987;50.884;14.818;2022-09-09T15:15:10;23.20;99.90
5924;DHT22;2987;50.884;14.818;2022-09-09T15:17:36;23.40;99.90
5924;DHT22;2987;50.884;14.818;2022-09-09T15:20:03;23.40;99.90
5924;DHT22;2987;50.884;14.818;2022-09-09T15:22:32;23.40;99.90
5924;DHT22;2987;50.884;14.818;2022-09-09T15:25:01;23.30;99.90
5924;DHT22;2987;50.884;14.818;2022-09-09T15:27:27;23.20;99.90
5924;DHT22;2987;50.884;14.818;2022-09-09T15:29:53;23.00;99.90
5924;DHT22;2987;50.884;14.818;2022-09-09T15:32:21;22.80;99.90
5924;DHT22;2987;50.884;14.818;2022-09-09T15:34:47;22.50;99.90
5924;DHT22;2987;50.884;14.818;2022-09-09T15:37:13;22.20;99.90
5924;DHT22;2987;50.884;14.818;2022-09-09T15:39:39;22.00;99.90
5924;DHT22;2987;50.884;14.818;2022-09-09T15:42:07;21.80;99.90
5924;DHT22;2987;50.884;14.818;2022-09-09T15:44:42;21.80;99.90
5924;DHT22;2987;50.884;14.818;2022-09-09T15:47:11;21.70;99.90
5924;DHT22;2987;50.884;14.818;2022-09-09T15:49:38;21.60;99.90
5924;DHT22;2987;50.884;14.818;2022-09-09T15:52:05;21.60;99.90
5924;DHT22;2987;50.884;14.818;2022-09-09T15:54:33;21.50;99.90
5924;DHT22;2987;50.884;14.818;2022-09-09T15:57:03;21.40;99.90
5924;DHT22;2987;50.884;14.818;2022-09-09T15:59:31;21.40;99.90
5924;DHT22;2987;50.884;14.818;2022-09-09T16:01:58;21.50;99.90
5924;DHT22;2987;50.884;14.818;2022-09-09T16:04:27;21.50;99.90
5924;DHT22;2987;50.884;14.818;2022-09-09T16:06:58;21.50;99.90
5924;DHT22;2987;50.884;14.818;2022-09-09T16:09:26;21.40;99.90
5924;DHT22;2987;50.884;14.818;2022-09-09T16:11:55;21.40;99.90
5924;DHT22;2987;50.884;14.818;2022-09-09T16:14:22;21.30;99.90
5924;DHT22;2987;50.884;14.818;2022-09-09T16:16:48;21.20;99.90
5924;DHT22;2987;50.884;14.818;2022-09-09T16:19:14;21.20;99.90
5924;DHT22;2987;50.884;14.818;2022-09-09T16:21:44;21.20;99.90
5924;DHT22;2987;50.884;14.818;2022-09-09T16:24:12;21.00;99.90
5924;DHT22;2987;50.884;14.818;2022-09-09T16:26:41;20.80;99.90
5924;DHT22;2987;50.884;14.818;2022-09-09T16:29:12;20.70;99.90
5924;DHT22;2987;50.884;14.818;2022-09-09T16:31:40;20.50;99.90
5924;DHT22;2987;50.884;14.818;2022-09-09T16:34:08;20.40;99.90
5924;DHT22;2987;50.884;14.818;2022-09-09T16:36:36;20.20;99.90
5924;DHT22;2987;50.884;14.818;2022-09-09T16:39:07;20.10;99.90
5924;DHT22;2987;50.884;14.818;2022-09-09T16:41:35;19.90;99.90
5924;DHT22;2987;50.884;14.818;2022-09-09T16:44:04;19.80;99.90
5924;DHT22;2987;50.884;14.818;2022-09-09T16:46:34;19.70;99.90
5924;DHT22;2987;50.884;14.818;2022-09-09T16:49:04;19.60;99.90
5924;DHT22;2987;50.884;14.818;2022-09-09T16:51:33;19.60;99.90
5924;DHT22;2987;50.884;14.818;2022-09-09T16:54:02;19.40;99.90
5924;DHT22;2987;50.884;14.818;2022-09-09T16:56:31;19.40;99.90
5924;DHT22;2987;50.884;14.818;2022-09-09T16:59:02;19.40;99.90
5924;DHT22;2987;50.884;14.818;2022-09-09T17:01:31;19.30;99.90
5924;DHT22;2987;50.884;14.818;2022-09-09T17:04:00;19.10;99.90
5924;DHT22;2987;50.884;14.818;2022-09-09T17:06:29;18.90;99.90
5924;DHT22;2987;50.884;14.818;2022-09-09T17:08:58;18.90;99.90
5924;DHT22;2987;50.884;14.818;2022-09-09T17:11:25;18.70;99.90
5924;DHT22;2987;50.884;14.818;2022-09-09T17:13:52;18.70;99.90
5924;DHT22;2987;50.884;14.818;2022-09-09T17:16:22;18.60;99.90
5924;DHT22;2987;50.884;14.818;2022-09-09T17:18:50;18.60;99.90
5924;DHT22;2987;50.884;14.818;2022-09-09T17:21:19;18.50;99.90
5924;DHT22;2987;50.884;14.818;2022-09-09T17:23:46;18.50;99.90
5924;DHT22;2987;50.884;14.818;2022-09-09T17:26:15;18.50;99.90
5924;DHT22;2987;50.884;14.818;2022-09-09T17:28:42;18.40;99.90
5924;DHT22;2987;50.884;14.818;2022-09-09T17:31:10;18.50;99.90
5924;DHT22;2987;50.884;14.818;2022-09-09T17:33:39;18.50;99.90
5924;DHT22;2987;50.884;14.818;2022-09-09T17:36:10;18.40;99.90
5924;DHT22;2987;50.884;14.818;2022-09-09T17:38:38;18.40;99.90
5924;DHT22;2987;50.884;14.818;2022-09-09T17:41:11;18.30;99.90
5924;DHT22;2987;50.884;14.818;2022-09-09T17:43:38;18.30;99.90
5924;DHT22;2987;50.884;14.818;2022-09-09T17:46:10;18.30;99.90
5924;DHT22;2987;50.884;14.818;2022-09-09T17:48:38;18.30;99.90
5924;DHT22;2987;50.884;14.818;2022-09-09T17:51:06;18.30;99.90